This is the latest recevied weather packets stored in our database for station/object 9W2CEW-1. If no packets are shown the sender has not sent any weather packets the latest 10 day(s).
| Time | Temp. | Humidity | Pressure | Rain* | Wind** | Luminosity | Snow |
|---|---|---|---|---|---|---|---|
| 1788086317 | 36.67° C | 41% | 1002.8 hPa | - | - | - | - |
| 1788085416 | 36.67° C | 43% | 1002.8 hPa | - | - | - | - |
| 1788084516 | 37.22° C | 42% | 1002.7 hPa | - | - | - | - |
| 1788083619 | 37.22° C | 42% | 1002.5 hPa | - | - | - | - |
| 1788082716 | 40° C | 36% | 1002.8 hPa | - | - | - | - |
| 1788081815 | 38.33° C | 40% | 1002.6 hPa | - | - | - | - |
| 1788080915 | 38.89° C | 38% | 1002.7 hPa | - | - | - | - |
| 1788080015 | 37.22° C | 42% | 1002.4 hPa | - | - | - | - |
| 1788079115 | 37.22° C | 40% | 1002.5 hPa | - | - | - | - |
| 1788078215 | 38.33° C | 38% | 1002.4 hPa | - | - | - | - |
| 1788077317 | 38.33° C | 40% | 1003 hPa | - | - | - | - |
| 1788076417 | 38.89° C | 38% | 1003.3 hPa | - | - | - | - |
| 1788075517 | 37.78° C | 40% | 1003.2 hPa | - | - | - | - |
| 1788074616 | 38.33° C | 39% | 1003.3 hPa | - | - | - | - |
| 1788073716 | 37.22° C | 41% | 1003.1 hPa | - | - | - | - |
| 1788072816 | 39.44° C | 38% | 1003.5 hPa | - | - | - | - |
| 1788071916 | 38.33° C | 40% | 1003.7 hPa | - | - | - | - |
| 1788071016 | 39.44° C | 37% | 1003.9 hPa | - | - | - | - |
| 1788070116 | 40° C | 37% | 1004.1 hPa | - | - | - | - |
| 1788069216 | 41.11° C | 34% | 1004.5 hPa | - | - | - | - |
| 1788068316 | 38.89° C | 39% | 1004.9 hPa | - | - | - | - |
| 1788067416 | 40° C | 36% | 1005.1 hPa | - | - | - | - |
| 1788066753 | 40° C | 38% | 1005.8 hPa | - | - | - | - |
| 1788066516 | 40° C | 36% | 1005.3 hPa | - | - | - | - |
| 1788065615 | 40.56° C | 34% | 1005.5 hPa | - | - | - | - |
* Rain since midnight (hover to see other rain measurements)
** Current wind speed in m/s (hover to see current wind gust speed)